Time;durP1;ratioP1;P1;durP2;ratioP2;P2;SDS_P1;SDS_P2;PMS_P1;PMS_P2;Temp;Humidity;BMP_temperature;BMP_pressure;BME280_temperature;BME280_humidity;BME280_pressure;Samples;Min_cycle;Max_cycle;Signal;HPM_P1;HPM_P2
2021/09/04 00:01:43;;;;;;;7.40;6.07;;;20.00;99.90;;;;;;5044930;28;20667;-76
2021/09/04 00:04:10;;;;;;;9.07;5.97;;;20.00;99.90;;;;;;5038407;28;20495;-77
2021/09/04 00:06:36;;;;;;;7.63;6.82;;;20.00;99.90;;;;;;5048392;28;20242;-76
2021/09/04 00:09:04;;;;;;;6.93;5.80;;;20.00;99.90;;;;;;5034669;28;20608;-76
2021/09/04 00:11:31;;;;;;;6.88;6.18;;;20.00;99.90;;;;;;5044326;28;20188;-76
2021/09/04 00:13:58;;;;;;;8.07;6.85;;;20.00;99.90;;;;;;5053483;28;20222;-77
2021/09/04 00:16:25;;;;;;;10.88;6.47;;;19.90;99.90;;;;;;5053238;28;20196;-76
2021/09/04 00:18:53;;;;;;;7.50;6.15;;;19.90;99.90;;;;;;5045042;28;20714;-78
2021/09/04 00:21:20;;;;;;;8.73;7.03;;;19.90;99.90;;;;;;5039738;28;20234;-77
2021/09/04 00:23:47;;;;;;;9.45;6.55;;;19.90;99.90;;;;;;5034366;28;20289;-77
2021/09/04 00:26:13;;;;;;;9.95;7.15;;;19.80;99.90;;;;;;5040657;28;20195;-77
2021/09/04 00:28:42;;;;;;;8.57;7.43;;;19.80;99.90;;;;;;5053560;28;20258;-76
2021/09/04 00:31:08;;;;;;;8.85;7.63;;;19.80;99.90;;;;;;5053329;28;20286;-76
2021/09/04 00:33:35;;;;;;;7.75;6.95;;;19.80;99.90;;;;;;5052509;28;20200;-77
2021/09/04 00:36:03;;;;;;;9.57;6.72;;;19.80;99.90;;;;;;5052613;28;20257;-77
2021/09/04 00:38:30;;;;;;;9.00;7.05;;;19.80;99.90;;;;;;5051533;28;20199;-75
2021/09/04 00:40:57;;;;;;;8.88;6.80;;;19.80;99.90;;;;;;5041952;28;20192;-77
2021/09/04 00:43:24;;;;;;;7.70;6.95;;;19.70;99.90;;;;;;5053114;28;20211;-77
2021/09/04 00:45:51;;;;;;;8.40;7.53;;;19.70;99.90;;;;;;5045321;28;20200;-76
2021/09/04 00:48:17;;;;;;;8.32;6.50;;;19.70;99.90;;;;;;5033748;28;20196;-75
2021/09/04 00:50:44;;;;;;;8.50;7.30;;;19.70;99.90;;;;;;5040149;28;20729;-76
2021/09/04 00:53:12;;;;;;;8.43;6.95;;;19.70;99.90;;;;;;5054042;28;20283;-75
2021/09/04 00:55:40;;;;;;;10.07;7.30;;;19.60;99.90;;;;;;5041908;28;20223;-76
2021/09/04 00:58:06;;;;;;;8.70;7.50;;;19.60;99.90;;;;;;5053822;28;20195;-76
2021/09/04 01:00:33;;;;;;;7.25;6.55;;;19.60;99.90;;;;;;5053487;28;20615;-76
2021/09/04 01:03:00;;;;;;;8.20;7.18;;;19.60;99.90;;;;;;5052324;28;20700;-75
2021/09/04 01:05:27;;;;;;;10.20;8.10;;;19.60;99.90;;;;;;5041107;28;20196;-76
2021/09/04 01:07:53;;;;;;;8.30;7.45;;;19.60;99.90;;;;;;5043750;28;20196;-75
2021/09/04 01:10:22;;;;;;;8.60;6.90;;;19.60;99.90;;;;;;5040987;28;20250;-75
2021/09/04 01:12:49;;;;;;;8.68;7.78;;;19.60;99.90;;;;;;5053097;28;20265;-75
2021/09/04 01:15:16;;;;;;;9.52;7.65;;;19.50;99.90;;;;;;5050962;28;20195;-78
2021/09/04 01:17:43;;;;;;;9.70;7.68;;;19.50;99.90;;;;;;5051831;28;20194;-76
2021/09/04 01:20:11;;;;;;;8.20;7.30;;;19.50;99.90;;;;;;5040496;28;20216;-76
2021/09/04 01:22:38;;;;;;;8.85;7.90;;;19.50;99.90;;;;;;5033354;28;20211;-77
2021/09/04 01:25:07;;;;;;;10.65;9.27;;;19.50;99.90;;;;;;5032930;28;20200;-77
2021/09/04 01:27:38;;;;;;;9.05;8.13;;;19.50;99.90;;;;;;5043463;28;20195;-77
2021/09/04 01:30:06;;;;;;;8.95;8.07;;;19.40;99.90;;;;;;5051972;28;20206;-77
2021/09/04 01:32:33;;;;;;;12.38;8.68;;;19.40;99.90;;;;;;5044906;28;20274;-77
2021/09/04 01:35:05;;;;;;;10.88;8.80;;;19.40;99.90;;;;;;5050105;28;20234;-76
2021/09/04 01:37:32;;;;;;;12.30;8.85;;;19.40;99.90;;;;;;5045067;28;20286;-76
2021/09/04 01:39:59;;;;;;;9.95;7.57;;;19.40;99.90;;;;;;5042505;28;20597;-77
2021/09/04 01:42:26;;;;;;;9.85;8.52;;;19.30;99.90;;;;;;5050619;28;20246;-76
2021/09/04 01:44:54;;;;;;;8.98;8.05;;;19.30;99.90;;;;;;5039718;28;20993;-78
2021/09/04 01:47:20;;;;;;;10.63;8.55;;;19.30;99.90;;;;;;5045656;28;20200;-78
2021/09/04 01:49:47;;;;;;;13.82;7.95;;;19.30;99.90;;;;;;5053306;28;20199;-78
2021/09/04 01:52:14;;;;;;;13.07;8.65;;;19.30;99.90;;;;;;5053114;28;20199;-78
2021/09/04 01:54:42;;;;;;;11.65;8.93;;;19.20;99.90;;;;;;5047957;28;20266;-78
2021/09/04 01:57:10;;;;;;;12.75;9.70;;;19.10;99.90;;;;;;5051201;28;20191;-77
2021/09/04 01:59:37;;;;;;;11.73;8.13;;;19.10;99.90;;;;;;5045415;28;20200;-78
2021/09/04 02:02:05;;;;;;;10.15;8.45;;;19.10;99.90;;;;;;5052859;28;20194;-77
2021/09/04 02:04:32;;;;;;;12.45;7.47;;;19.10;99.90;;;;;;5051454;28;20215;-78
2021/09/04 02:06:59;;;;;;;12.45;8.63;;;19.10;99.90;;;;;;5042235;28;20254;-77
2021/09/04 02:09:25;;;;;;;11.35;8.85;;;19.10;99.90;;;;;;5042993;28;20202;-78
2021/09/04 02:11:52;;;;;;;10.40;7.55;;;19.00;99.90;;;;;;5047805;28;20191;-78
2021/09/04 02:14:19;;;;;;;10.48;8.15;;;19.10;99.90;;;;;;5035416;28;20204;-78
2021/09/04 02:16:46;;;;;;;10.82;8.18;;;19.00;99.90;;;;;;5047223;28;20192;-78
2021/09/04 02:19:14;;;;;;;10.70;7.43;;;19.00;99.90;;;;;;5050309;28;20197;-78
2021/09/04 02:21:41;;;;;;;18.77;9.52;;;19.00;99.90;;;;;;5053835;28;20241;-78
2021/09/04 02:24:08;;;;;;;12.38;9.18;;;19.00;99.90;;;;;;5050059;28;20211;-78
2021/09/04 02:26:34;;;;;;;9.93;8.35;;;19.00;99.90;;;;;;5044303;28;20656;-77
2021/09/04 02:29:01;;;;;;;11.82;9.48;;;19.00;99.90;;;;;;5053605;28;20207;-79
2021/09/04 02:31:28;;;;;;;14.90;9.20;;;19.00;99.90;;;;;;5052727;28;20196;-77
2021/09/04 02:33:56;;;;;;;9.88;8.50;;;18.90;99.90;;;;;;5050577;28;20269;-77
2021/09/04 02:36:24;;;;;;;11.77;9.75;;;18.90;99.90;;;;;;5050521;28;20199;-77
2021/09/04 02:38:51;;;;;;;9.73;8.63;;;18.80;99.90;;;;;;5050139;28;20230;-77
2021/09/04 02:41:18;;;;;;;9.43;8.30;;;18.80;99.90;;;;;;5038715;28;20191;-77
2021/09/04 02:43:45;;;;;;;10.63;9.00;;;18.90;99.90;;;;;;5051867;28;20223;-77
2021/09/04 02:46:11;;;;;;;10.88;8.32;;;18.80;99.90;;;;;;5046615;28;20597;-77
2021/09/04 02:48:38;;;;;;;9.82;8.77;;;18.80;99.90;;;;;;5039128;28;20204;-76
2021/09/04 02:51:05;;;;;;;13.90;11.32;;;18.80;99.90;;;;;;5052191;28;20660;-78
2021/09/04 02:53:33;;;;;;;12.73;8.52;;;18.80;99.90;;;;;;5050704;28;20241;-77
2021/09/04 02:56:00;;;;;;;13.65;10.82;;;18.80;99.90;;;;;;5040887;28;20675;-77
2021/09/04 02:58:26;;;;;;;12.85;9.20;;;18.70;99.90;;;;;;5037333;28;20207;-77
2021/09/04 03:00:53;;;;;;;19.65;11.25;;;18.70;99.90;;;;;;5049427;28;20204;-76
2021/09/04 03:03:20;;;;;;;11.40;9.00;;;18.70;99.90;;;;;;5048779;28;20334;-77
2021/09/04 03:05:46;;;;;;;13.07;9.75;;;18.70;99.90;;;;;;5034302;28;20192;-77
2021/09/04 03:08:13;;;;;;;11.95;10.43;;;18.70;99.90;;;;;;5035739;28;20273;-76
2021/09/04 03:10:41;;;;;;;11.38;8.73;;;18.70;99.90;;;;;;5048234;28;20203;-76
2021/09/04 03:13:08;;;;;;;11.10;9.65;;;18.60;99.90;;;;;;5051456;28;20199;-77
2021/09/04 03:15:35;;;;;;;11.80;9.52;;;18.60;99.90;;;;;;5054073;28;20191;-75
2021/09/04 03:18:01;;;;;;;14.50;10.55;;;18.50;99.90;;;;;;5036789;28;20571;-75
2021/09/04 03:20:28;;;;;;;12.00;10.00;;;18.60;99.90;;;;;;5040148;28;20216;-76
2021/09/04 03:22:55;;;;;;;12.77;10.15;;;18.60;99.90;;;;;;5035522;28;20662;-77
2021/09/04 03:25:22;;;;;;;15.18;10.63;;;18.50;99.90;;;;;;5041863;28;20246;-76
2021/09/04 03:27:50;;;;;;;14.63;10.20;;;18.50;99.90;;;;;;5054653;28;20191;-77
2021/09/04 03:30:16;;;;;;;11.18;9.13;;;18.50;99.90;;;;;;5055289;28;20280;-76
2021/09/04 03:32:43;;;;;;;14.23;10.52;;;18.50;99.90;;;;;;5040607;28;20252;-76
2021/09/04 03:35:11;;;;;;;12.50;9.45;;;18.40;99.90;;;;;;5043380;28;20731;-77
2021/09/04 03:37:37;;;;;;;10.93;9.60;;;18.40;99.90;;;;;;5055670;28;20607;-77
2021/09/04 03:40:05;;;;;;;16.50;10.95;;;18.40;99.90;;;;;;5043602;28;20196;-75
2021/09/04 03:42:33;;;;;;;13.90;10.95;;;18.40;99.90;;;;;;5053434;28;20226;-75
2021/09/04 03:45:01;;;;;;;12.23;10.43;;;18.60;99.90;;;;;;5045163;28;20219;-75
2021/09/04 03:47:28;;;;;;;15.73;10.20;;;18.40;99.90;;;;;;5050616;28;20196;-76
2021/09/04 03:49:54;;;;;;;12.00;10.15;;;18.40;99.90;;;;;;5039636;28;20196;-76
2021/09/04 03:52:21;;;;;;;12.35;9.90;;;18.40;99.90;;;;;;5053512;28;20273;-76
2021/09/04 03:54:48;;;;;;;11.07;9.90;;;18.40;99.90;;;;;;5051843;28;20687;-76
2021/09/04 03:57:14;;;;;;;15.07;10.95;;;18.30;99.90;;;;;;5055084;28;20660;-76
2021/09/04 03:59:41;;;;;;;11.88;10.52;;;18.30;99.90;;;;;;5053337;28;20273;-76
2021/09/04 04:02:09;;;;;;;12.73;10.95;;;18.30;99.90;;;;;;5045213;28;20204;-76
2021/09/04 04:04:36;;;;;;;13.55;11.57;;;18.20;99.90;;;;;;5034964;28;20216;-76
2021/09/04 04:07:03;;;;;;;13.35;10.85;;;18.20;99.90;;;;;;5044058;28;20188;-75
2021/09/04 04:09:30;;;;;;;16.45;10.70;;;18.20;99.90;;;;;;5047758;28;20538;-76
2021/09/04 04:11:56;;;;;;;13.45;11.65;;;18.20;99.90;;;;;;5035741;28;20192;-77
2021/09/04 04:14:23;;;;;;;17.60;11.45;;;18.20;99.90;;;;;;5052921;28;20303;-76
2021/09/04 04:16:50;;;;;;;11.25;9.68;;;18.20;99.90;;;;;;5053449;28;20245;-77
2021/09/04 04:19:18;;;;;;;11.50;9.75;;;18.20;99.90;;;;;;5052219;28;20273;-77
2021/09/04 04:21:45;;;;;;;14.20;10.48;;;18.10;99.90;;;;;;5049124;28;20196;-76
2021/09/04 04:24:11;;;;;;;15.25;10.70;;;18.10;99.90;;;;;;5046722;28;20269;-75
2021/09/04 04:26:38;;;;;;;13.35;11.25;;;18.10;99.90;;;;;;5041533;28;20196;-76
2021/09/04 04:29:05;;;;;;;15.32;10.63;;;18.10;99.90;;;;;;5053940;28;20554;-76
2021/09/04 04:31:33;;;;;;;12.38;9.98;;;18.10;99.90;;;;;;5052678;28;20246;-77
2021/09/04 04:34:00;;;;;;;14.15;10.35;;;18.10;99.90;;;;;;5048053;28;20286;-78
2021/09/04 04:36:28;;;;;;;12.00;10.70;;;18.10;99.90;;;;;;5054609;28;20245;-77
2021/09/04 04:38:55;;;;;;;13.55;10.65;;;18.10;99.90;;;;;;5050373;28;20199;-77
2021/09/04 04:41:21;;;;;;;14.70;11.63;;;18.00;99.90;;;;;;5037797;28;20195;-76
2021/09/04 04:43:48;;;;;;;11.93;10.65;;;18.00;99.90;;;;;;5053127;28;20214;-77
2021/09/04 04:46:15;;;;;;;13.32;10.65;;;18.00;99.90;;;;;;5047963;28;20607;-76
2021/09/04 04:48:42;;;;;;;13.07;10.60;;;18.00;99.90;;;;;;5050875;28;20196;-78
2021/09/04 04:51:08;;;;;;;12.48;10.82;;;18.00;99.90;;;;;;5052067;28;20747;-77
2021/09/04 04:53:36;;;;;;;11.32;9.80;;;18.00;99.90;;;;;;5052244;28;20195;-77
2021/09/04 04:56:03;;;;;;;11.48;9.93;;;18.00;99.90;;;;;;5045948;28;20257;-77
2021/09/04 04:58:30;;;;;;;13.02;11.20;;;18.00;99.90;;;;;;5053116;28;20203;-77
2021/09/04 05:00:57;;;;;;;13.55;11.65;;;18.00;99.90;;;;;;5034260;28;20204;-77
2021/09/04 05:03:24;;;;;;;13.38;9.57;;;17.90;99.90;;;;;;5048177;28;20199;-77
2021/09/04 05:05:51;;;;;;;11.63;9.88;;;17.90;99.90;;;;;;5053349;28;20336;-77
2021/09/04 05:08:18;;;;;;;13.88;11.27;;;18.00;99.90;;;;;;5051437;28;20195;-77
2021/09/04 05:10:46;;;;;;;12.43;9.70;;;17.90;99.90;;;;;;5034681;28;20230;-77
2021/09/04 05:13:12;;;;;;;13.77;11.63;;;17.90;99.90;;;;;;5050806;28;20264;-77
2021/09/04 05:15:39;;;;;;;13.77;9.75;;;17.80;99.90;;;;;;5052767;28;20203;-76
2021/09/04 05:18:06;;;;;;;10.60;9.43;;;17.90;99.90;;;;;;5043276;28;20612;-76
2021/09/04 05:20:33;;;;;;;13.93;11.35;;;17.90;99.90;;;;;;5050135;28;20212;-77
2021/09/04 05:22:59;;;;;;;11.10;9.70;;;17.90;99.90;;;;;;5040614;28;20196;-76
2021/09/04 05:25:26;;;;;;;15.75;10.23;;;17.90;99.90;;;;;;5047207;28;20211;-77
2021/09/04 05:27:54;;;;;;;12.68;10.00;;;17.90;99.90;;;;;;5053472;28;20199;-78
2021/09/04 05:30:21;;;;;;;12.35;9.52;;;17.80;99.90;;;;;;5043533;28;20191;-78
2021/09/04 05:32:47;;;;;;;15.18;12.43;;;17.80;99.90;;;;;;5054123;28;20187;-78
2021/09/04 05:35:14;;;;;;;17.52;13.80;;;17.80;99.90;;;;;;5038472;28;20612;-80
2021/09/04 05:37:42;;;;;;;11.50;10.13;;;17.90;99.90;;;;;;5052104;28;20191;-77
2021/09/04 05:40:10;;;;;;;15.07;11.25;;;17.80;99.90;;;;;;5055504;28;20202;-78
2021/09/04 05:42:37;;;;;;;13.57;10.55;;;17.80;99.90;;;;;;5055124;28;20241;-78
2021/09/04 05:45:06;;;;;;;13.23;10.32;;;17.80;99.90;;;;;;5055274;28;20226;-77
2021/09/04 05:47:33;;;;;;;14.32;10.93;;;17.80;99.90;;;;;;5050410;28;20253;-77
2021/09/04 05:50:02;;;;;;;13.02;10.93;;;17.70;99.90;;;;;;5044532;28;20257;-78
2021/09/04 05:52:29;;;;;;;14.98;11.35;;;17.80;99.90;;;;;;5053506;28;20664;-77
2021/09/04 05:54:56;;;;;;;15.48;12.70;;;17.70;99.90;;;;;;5043830;28;20202;-78
2021/09/04 05:57:23;;;;;;;17.75;13.07;;;17.70;99.90;;;;;;5039589;28;20660;-78
2021/09/04 05:59:50;;;;;;;14.35;10.25;;;17.70;99.90;;;;;;5047594;28;20219;-77
2021/09/04 06:02:18;;;;;;;11.43;9.27;;;17.70;99.90;;;;;;5046690;28;20199;-77
2021/09/04 06:04:45;;;;;;;12.07;10.07;;;17.70;99.90;;;;;;5052223;28;20246;-78
2021/09/04 06:07:11;;;;;;;15.07;11.15;;;17.70;99.90;;;;;;5052830;28;20625;-77
2021/09/04 06:09:38;;;;;;;13.02;10.20;;;17.70;99.90;;;;;;5052325;28;20191;-77
2021/09/04 06:12:05;;;;;;;13.80;11.07;;;17.70;99.90;;;;;;5049833;28;20595;-77
2021/09/04 06:14:32;;;;;;;13.43;10.70;;;17.70;99.90;;;;;;5040144;28;20546;-78
2021/09/04 06:16:58;;;;;;;14.52;11.52;;;17.70;99.90;;;;;;5042698;28;20607;-78
2021/09/04 06:19:26;;;;;;;12.88;10.63;;;17.70;99.90;;;;;;5038796;28;20222;-77
2021/09/04 06:21:53;;;;;;;13.35;10.65;;;17.70;99.90;;;;;;5050184;28;20196;-78
2021/09/04 06:24:20;;;;;;;13.48;11.93;;;17.70;99.90;;;;;;5045631;28;20216;-78
2021/09/04 06:26:46;;;;;;;14.85;10.98;;;17.60;99.90;;;;;;5033024;28;20246;-79
2021/09/04 06:29:13;;;;;;;14.40;11.63;;;17.60;99.90;;;;;;5040175;28;20555;-78
2021/09/04 06:31:40;;;;;;;17.40;11.40;;;17.60;99.90;;;;;;5043316;28;20253;-77
2021/09/04 06:34:06;;;;;;;16.35;12.73;;;17.60;99.90;;;;;;5034680;28;20652;-78
2021/09/04 06:36:34;;;;;;;16.50;11.23;;;17.70;99.90;;;;;;5035015;28;20200;-78
2021/09/04 06:39:01;;;;;;;14.13;11.35;;;17.60;99.90;;;;;;5052384;28;20245;-78
2021/09/04 06:41:28;;;;;;;14.73;11.65;;;17.60;99.90;;;;;;5041487;28;20188;-78
2021/09/04 06:43:54;;;;;;;15.25;13.02;;;17.60;99.90;;;;;;5037896;28;20233;-78
2021/09/04 06:46:21;;;;;;;19.20;11.98;;;17.60;99.90;;;;;;5050645;28;20265;-76
2021/09/04 06:48:48;;;;;;;16.92;12.05;;;17.60;99.90;;;;;;5043245;28;20664;-76
2021/09/04 06:51:14;;;;;;;14.82;12.05;;;17.70;99.90;;;;;;5049218;28;20607;-75
2021/09/04 06:53:42;;;;;;;13.95;11.52;;;17.60;99.90;;;;;;5056779;28;20245;-77
2021/09/04 06:56:09;;;;;;;17.38;12.77;;;17.60;99.90;;;;;;5043874;28;20203;-77
2021/09/04 06:58:36;;;;;;;15.30;12.00;;;17.60;99.90;;;;;;5051275;28;20199;-77
2021/09/04 07:01:03;;;;;;;17.77;12.60;;;17.60;99.90;;;;;;5039733;28;20667;-77
2021/09/04 07:03:29;;;;;;;15.07;11.77;;;17.50;99.90;;;;;;5051566;28;20268;-76
2021/09/04 07:05:56;;;;;;;13.90;11.38;;;17.50;99.90;;;;;;5031549;28;20226;-75
2021/09/04 07:08:23;;;;;;;14.65;11.48;;;17.50;99.90;;;;;;5042074;28;20661;-75
2021/09/04 07:10:51;;;;;;;16.08;12.65;;;17.60;99.90;;;;;;5048580;28;20245;-76
2021/09/04 07:13:18;;;;;;;13.65;11.00;;;17.50;99.90;;;;;;5048979;28;20592;-77
2021/09/04 07:15:44;;;;;;;13.35;11.15;;;17.50;99.90;;;;;;5048326;28;20257;-77
2021/09/04 07:18:11;;;;;;;18.52;12.57;;;17.60;99.90;;;;;;5040857;28;20326;-76
2021/09/04 07:20:38;;;;;;;18.13;11.60;;;17.50;99.90;;;;;;5044952;28;20688;-76
2021/09/04 07:23:05;;;;;;;17.05;12.82;;;17.50;99.90;;;;;;5051428;28;20191;-76
2021/09/04 07:25:31;;;;;;;15.35;12.27;;;17.50;99.90;;;;;;5041017;28;20250;-78
2021/09/04 07:28:00;;;;;;;17.38;12.95;;;17.50;99.90;;;;;;5042287;28;20208;-80
2021/09/04 07:30:26;;;;;;;17.55;12.38;;;17.50;99.90;;;;;;5057607;28;20188;-80
2021/09/04 07:32:53;;;;;;;17.45;13.07;;;17.50;99.90;;;;;;5045927;28;20200;-82
2021/09/04 07:35:20;;;;;;;18.55;12.77;;;17.50;99.90;;;;;;5054140;28;20196;-80
2021/09/04 07:37:46;;;;;;;16.42;11.50;;;17.50;99.90;;;;;;5054204;28;20561;-80
2021/09/04 07:40:13;;;;;;;14.80;10.77;;;17.50;99.90;;;;;;5057501;28;20277;-80
2021/09/04 07:42:40;;;;;;;16.17;12.07;;;17.50;99.90;;;;;;5067039;28;20195;-81
2021/09/04 07:45:09;;;;;;;16.73;11.73;;;17.50;99.90;;;;;;5058920;28;20212;-79
2021/09/04 07:47:36;;;;;;;16.02;11.35;;;17.50;99.90;;;;;;5050780;28;20218;-80
2021/09/04 07:50:03;;;;;;;13.65;11.23;;;17.40;99.90;;;;;;5064559;28;20225;-81
2021/09/04 07:52:30;;;;;;;13.98;11.02;;;17.40;99.90;;;;;;5064107;28;20184;-79
2021/09/04 07:54:57;;;;;;;16.08;13.55;;;17.40;99.90;;;;;;5052037;28;20206;-80
2021/09/04 07:57:24;;;;;;;14.25;10.15;;;17.40;99.90;;;;;;5066987;28;20195;-81
2021/09/04 07:59:52;;;;;;;14.52;10.45;;;17.40;99.90;;;;;;5063868;28;20533;-82
2021/09/04 08:02:20;;;;;;;15.50;11.13;;;17.40;99.90;;;;;;5062091;28;20261;-81
2021/09/04 08:04:47;;;;;;;17.35;12.20;;;17.40;99.90;;;;;;5052590;28;20228;-79
2021/09/04 08:07:13;;;;;;;14.93;11.85;;;17.50;99.90;;;;;;5061000;28;20203;-79
2021/09/04 08:09:40;;;;;;;14.75;10.38;;;17.50;99.90;;;;;;5057834;28;20204;-79
2021/09/04 08:12:07;;;;;;;17.25;12.80;;;17.40;99.90;;;;;;5060054;28;20192;-79
2021/09/04 08:14:34;;;;;;;13.27;11.68;;;17.40;99.90;;;;;;5064552;28;20188;-78
2021/09/04 08:17:01;;;;;;;13.27;9.95;;;17.40;99.90;;;;;;5062069;28;20208;-80
2021/09/04 08:19:29;;;;;;;15.60;12.25;;;17.40;99.90;;;;;;5066402;28;20283;-80
2021/09/04 08:21:55;;;;;;;17.35;12.40;;;17.40;99.90;;;;;;5047299;28;20192;-80
2021/09/04 08:24:22;;;;;;;17.10;12.38;;;17.50;99.90;;;;;;5047991;28;20192;-80
2021/09/04 08:26:49;;;;;;;16.08;13.05;;;17.50;99.90;;;;;;5048069;28;20247;-79
2021/09/04 08:29:16;;;;;;;16.30;11.25;;;17.40;99.90;;;;;;5050009;28;20223;-80
2021/09/04 08:31:42;;;;;;;14.77;11.88;;;17.40;99.90;;;;;;5059542;28;20212;-80
2021/09/04 08:34:09;;;;;;;16.38;12.55;;;17.60;99.90;;;;;;5052033;28;20728;-80
2021/09/04 08:36:37;;;;;;;14.95;11.55;;;17.30;99.90;;;;;;5056973;28;20533;-80
2021/09/04 08:39:04;;;;;;;14.60;11.52;;;17.00;99.90;;;;;;5061794;28;20215;-80
2021/09/04 08:41:31;;;;;;;15.27;10.52;;;17.40;99.90;;;;;;5051078;28;20600;-80
2021/09/04 08:43:58;;;;;;;18.55;11.60;;;17.40;99.90;;;;;;5058243;28;20214;-80
2021/09/04 08:46:29;;;;;;;15.30;10.90;;;17.40;99.90;;;;;;5066407;28;20296;-80
2021/09/04 08:48:56;;;;;;;16.80;11.20;;;17.50;99.90;;;;;;5058793;28;20192;-80
2021/09/04 08:51:23;;;;;;;18.00;11.52;;;17.40;99.90;;;;;;5061801;28;20192;-80
2021/09/04 08:53:51;;;;;;;18.55;12.65;;;17.40;99.90;;;;;;5066743;28;20195;-81
2021/09/04 08:56:17;;;;;;;14.93;10.75;;;17.40;99.90;;;;;;5047793;28;20269;-79
2021/09/04 08:58:44;;;;;;;19.05;13.82;;;17.40;99.90;;;;;;5061789;28;20257;-78
2021/09/04 09:01:18;;;;;;;20.85;13.02;;;17.50;99.90;;;;;;5058962;28;20207;-80
2021/09/04 09:03:55;;;;;;;;;;;;;;;;;;;;;
2021/09/04 09:06:26;;;;;;;18.92;13.48;;;17.50;99.90;;;;;;5058251;28;20282;-80
2021/09/04 09:08:55;;;;;;;19.10;13.20;;;17.50;99.90;;;;;;5064940;28;20708;-79
2021/09/04 09:11:23;;;;;;;20.95;13.50;;;17.40;99.90;;;;;;5051596;28;20199;-80
2021/09/04 09:13:52;;;;;;;18.95;12.93;;;17.50;99.90;;;;;;5062850;28;20241;-79
2021/09/04 09:16:22;;;;;;;23.77;14.80;;;17.40;99.90;;;;;;5055426;28;20670;-75
2021/09/04 09:18:57;;;;;;;19.00;13.38;;;17.50;99.90;;;;;;5045643;28;20200;-82
2021/09/04 09:21:30;;;;;;;22.70;15.52;;;17.70;99.90;;;;;;5036075;28;20238;-81
2021/09/04 09:24:12;;;;;;;21.38;14.45;;;17.50;99.90;;;;;;5046850;28;20189;-75
2021/09/04 09:26:50;;;;;;;16.52;12.57;;;17.50;99.90;;;;;;5049838;28;20265;-76
2021/09/04 09:29:19;;;;;;;25.35;15.70;;;17.40;99.90;;;;;;5046699;28;20238;-75
2021/09/04 09:31:46;;;;;;;17.45;13.13;;;17.50;99.90;;;;;;5036957;28;20256;-75
2021/09/04 09:34:15;;;;;;;21.80;14.98;;;17.40;99.90;;;;;;5043524;28;20199;-75
2021/09/04 09:36:50;;;;;;;22.65;14.68;;;17.50;99.90;;;;;;5047576;28;20199;-76
2021/09/04 09:39:18;;;;;;;17.95;13.77;;;17.50;99.90;;;;;;5047233;28;20242;-74
2021/09/04 09:41:49;;;;;;;19.20;13.23;;;17.50;99.90;;;;;;5051544;28;20196;-75
2021/09/04 09:44:20;;;;;;;21.40;14.32;;;17.50;99.90;;;;;;5034649;28;20204;-75
2021/09/04 09:46:48;;;;;;;23.60;15.52;;;17.50;99.90;;;;;;5042594;28;20223;-75
2021/09/04 09:49:15;;;;;;;18.55;14.65;;;17.50;99.90;;;;;;5046685;28;20191;-76
2021/09/04 09:51:43;;;;;;;21.17;13.70;;;17.60;99.90;;;;;;5052897;28;20199;-77
2021/09/04 09:54:12;;;;;;;20.20;15.35;;;17.50;99.90;;;;;;5041683;28;20286;-75
2021/09/04 09:56:41;;;;;;;25.05;16.92;;;17.50;99.90;;;;;;5052228;28;20249;-75
2021/09/04 09:59:12;;;;;;;24.75;18.55;;;17.50;99.90;;;;;;5050878;28;20278;-76
2021/09/04 10:01:41;;;;;;;22.80;15.70;;;17.60;99.90;;;;;;5043261;28;20235;-76
2021/09/04 10:04:12;;;;;;;19.92;14.77;;;17.60;99.90;;;;;;5051879;28;20452;-75
2021/09/04 10:06:39;;;;;;;22.58;15.07;;;17.60;99.90;;;;;;5039470;28;20211;-75
2021/09/04 10:09:08;;;;;;;20.55;15.13;;;17.60;99.90;;;;;;5048499;28;20561;-75
2021/09/04 10:11:38;;;;;;;24.50;16.20;;;17.50;99.90;;;;;;5047726;28;20195;-76
2021/09/04 10:14:06;;;;;;;22.85;14.25;;;17.60;99.90;;;;;;5046165;28;20283;-75
2021/09/04 10:16:34;;;;;;;17.83;14.45;;;17.60;99.90;;;;;;5051993;28;20684;-75
2021/09/04 10:19:02;;;;;;;20.55;15.52;;;17.60;99.90;;;;;;5044453;28;20203;-75
2021/09/04 10:21:38;;;;;;;29.08;17.05;;;17.70;99.90;;;;;;5049186;28;20191;-76
2021/09/04 10:24:05;;;;;;;23.02;16.88;;;17.80;99.90;;;;;;5050103;28;20685;-75
2021/09/04 10:26:33;;;;;;;33.17;20.25;;;17.70;99.90;;;;;;5052200;28;20223;-76
2021/09/04 10:29:20;;;;;;;27.55;19.45;;;17.70;99.90;;;;;;5049819;28;20625;-76
2021/09/04 10:31:58;;;;;;;29.23;19.00;;;17.70;99.90;;;;;;5049738;28;20195;-76
2021/09/04 10:34:28;;;;;;;29.27;16.90;;;17.60;99.90;;;;;;5042458;28;20230;-76
2021/09/04 10:37:00;;;;;;;30.30;19.25;;;17.70;99.90;;;;;;5050798;28;20277;-76
2021/09/04 10:39:50;;;;;;;29.30;19.40;;;17.70;99.90;;;;;;5044574;28;20716;-76
2021/09/04 10:42:19;;;;;;;32.90;19.45;;;17.70;99.90;;;;;;5031609;28;20207;-74
2021/09/04 10:44:49;;;;;;;22.63;17.20;;;17.70;99.90;;;;;;5035779;28;20192;-75
2021/09/04 10:47:17;;;;;;;25.00;17.38;;;17.70;99.90;;;;;;5044579;28;20774;-75
2021/09/04 10:49:46;;;;;;;31.48;18.33;;;17.70;99.90;;;;;;5051323;28;20657;-75
2021/09/04 10:52:13;;;;;;;26.38;19.83;;;17.70;99.90;;;;;;5051142;28;20660;-75
2021/09/04 10:54:57;;;;;;;22.70;16.75;;;17.70;99.90;;;;;;5043130;28;20196;-75
2021/09/04 10:57:25;;;;;;;26.48;18.88;;;17.70;99.90;;;;;;5046528;28;20195;-75
2021/09/04 11:00:07;;;;;;;20.35;15.35;;;17.70;99.90;;;;;;5051379;28;20196;-75
2021/09/04 11:02:49;;;;;;;20.98;15.48;;;17.70;99.90;;;;;;5031591;28;20200;-75
2021/09/04 11:05:51;;;;;;;21.67;15.57;;;17.70;99.90;;;;;;5049244;28;20191;-76
2021/09/04 11:08:38;;;;;;;25.50;16.10;;;17.70;99.90;;;;;;5051736;28;20229;-75
2021/09/04 11:11:18;;;;;;;22.25;16.00;;;17.70;99.90;;;;;;5049595;28;20202;-75
2021/09/04 11:13:45;;;;;;;17.65;15.43;;;17.70;99.90;;;;;;5050932;28;20202;-77
2021/09/04 11:16:32;;;;;;;19.05;13.45;;;17.70;99.90;;;;;;5047355;28;20242;-76
2021/09/04 11:19:04;;;;;;;24.98;15.20;;;17.70;99.90;;;;;;5049544;28;20234;-76
2021/09/04 11:21:34;;;;;;;16.85;13.77;;;17.70;99.90;;;;;;5044871;28;20193;-77
2021/09/04 11:24:02;;;;;;;21.45;13.93;;;17.80;99.90;;;;;;5046313;28;20191;-77
2021/09/04 11:26:29;;;;;;;19.50;14.10;;;17.70;99.90;;;;;;5042309;28;20627;-74
2021/09/04 11:28:56;;;;;;;19.35;14.85;;;17.80;99.90;;;;;;5042677;28;20249;-75
2021/09/04 11:31:23;;;;;;;19.08;14.60;;;17.80;99.90;;;;;;5050410;28;20199;-77
2021/09/04 11:33:53;;;;;;;24.58;15.25;;;17.80;99.90;;;;;;5050877;28;20599;-75
2021/09/04 11:36:30;;;;;;;18.08;12.88;;;17.90;99.90;;;;;;5054809;28;20199;-75
2021/09/04 11:38:57;;;;;;;17.17;14.23;;;17.90;99.90;;;;;;5053331;28;20198;-76
2021/09/04 11:41:24;;;;;;;14.90;12.85;;;17.90;99.90;;;;;;5055073;28;20241;-75
2021/09/04 11:43:50;;;;;;;17.67;12.90;;;18.00;99.90;;;;;;5055187;28;20196;-74
2021/09/04 11:46:23;;;;;;;18.10;13.95;;;17.90;99.90;;;;;;5053464;28;20296;-74
2021/09/04 11:48:52;;;;;;;18.65;11.63;;;17.90;99.90;;;;;;5049794;28;20289;-75
2021/09/04 11:51:20;;;;;;;15.85;12.25;;;17.90;99.90;;;;;;5055605;28;20203;-76
2021/09/04 11:53:46;;;;;;;23.63;13.48;;;18.00;99.90;;;;;;5054347;28;20199;-77
2021/09/04 11:56:16;;;;;;;20.45;14.73;;;18.00;99.90;;;;;;5035238;28;20407;-76
2021/09/04 11:58:43;;;;;;;17.27;12.88;;;18.00;99.90;;;;;;5051184;28;20207;-75
2021/09/04 12:01:10;;;;;;;17.95;11.68;;;18.00;99.90;;;;;;5051180;28;20258;-75
2021/09/04 12:03:37;;;;;;;18.80;15.25;;;18.00;99.90;;;;;;5044069;28;20249;-75
2021/09/04 12:06:08;;;;;;;16.63;12.50;;;18.00;99.90;;;;;;5054601;28;20607;-75
2021/09/04 12:08:37;;;;;;;17.85;14.07;;;18.00;99.90;;;;;;5053363;28;20246;-77
2021/09/04 12:11:06;;;;;;;15.57;11.98;;;18.10;99.90;;;;;;5039529;28;20200;-77
2021/09/04 12:13:33;;;;;;;15.32;12.48;;;18.00;99.90;;;;;;5054705;28;20200;-76
2021/09/04 12:16:01;;;;;;;13.45;11.25;;;18.10;99.90;;;;;;5054466;28;20246;-76
2021/09/04 12:18:29;;;;;;;16.60;13.20;;;18.10;99.90;;;;;;5047841;28;20235;-77
2021/09/04 12:20:58;;;;;;;15.40;11.88;;;18.10;99.90;;;;;;5051723;28;20212;-77
2021/09/04 12:23:27;;;;;;;19.00;12.63;;;18.20;99.90;;;;;;5051642;28;20200;-77
2021/09/04 12:26:05;;;;;;;18.25;13.38;;;18.30;99.90;;;;;;5034302;28;20204;-76
2021/09/04 12:28:31;;;;;;;14.93;12.35;;;18.30;99.90;;;;;;5041829;28;20191;-76
2021/09/04 12:31:01;;;;;;;16.70;12.55;;;18.40;99.90;;;;;;5054573;28;20615;-78
2021/09/04 12:33:29;;;;;;;17.15;12.25;;;18.40;99.90;;;;;;5046479;28;20192;-76
2021/09/04 12:35:58;;;;;;;13.07;10.15;;;18.40;99.90;;;;;;5053607;28;20194;-78
2021/09/04 12:38:27;;;;;;;15.48;10.98;;;18.40;99.90;;;;;;5052383;28;20203;-76